Terminal Aerodrome Forecast
Issued by NWS Boston, MA

Home | Current Version | Previous Version | Text Only | Print | Product List | Glossary On
Versions: 1 2 3 4 5 6 7 8 9 10 11 12 13 14 15 16 17 18
000
FTUS41 KBOX 221837 AAB
TAFORH
TAF AMD
KORH 221837Z 2219/2318 14004KT P6SM SKC
     FM230400 23004KT P6SM FEW250
     FM230800 23004KT 3SM BR SCT008 BKN080
     FM231000 22004KT 3/4SM BR BKN008
     FM231300 20005KT P6SM SCT008 BKN120
     FM231600 19007KT P6SM BKN050=

USA.gov is the U.S. government's official web portal to all federal, state and local government web resources and services.